<?xml version="1.0" encoding="UTF-8"?>
<gpx xmlns="http://www.topografix.com/GPX/1/1" xmlns:xsi="http://www.w3.org/2001/XMLSchema-instance" version="1.1" xsi:schemaLocation="http://www.topografix.com/GPX/1/1 http://www.topografix.com/GPX/1/1/gpx.xsd">
  <metadata>
    <name>Las Olas Triathlon 2026 - Quarter Olympic Aquabike</name>
  </metadata>
  <trk>
    <name>Las Olas Triathlon 2026 - Quarter Olympic Aquabike</name>
    <trkseg>
      <trkpt lat="26.119275" lon="-80.105298">
        <ele>1.952901</ele>
        <time>2026-04-19T07:30:00.000Z</time>
      </trkpt>
      <trkpt lat="26.119291" lon="-80.104996">
        <ele>1.952888</ele>
        <time>2026-04-19T07:30:03.000Z</time>
      </trkpt>
      <trkpt lat="26.11928" lon="-80.104674">
        <ele>1.952898</ele>
        <time>2026-04-19T07:30:06.000Z</time>
      </trkpt>
      <trkpt lat="26.119283" lon="-80.104559">
        <ele>1.9529</ele>
        <time>2026-04-19T07:30:07.000Z</time>
      </trkpt>
      <trkpt lat="26.119402" lon="-80.10456">
        <ele>1.952891</ele>
        <time>2026-04-19T07:30:08.000Z</time>
      </trkpt>
      <trkpt lat="26.120101" lon="-80.104463">
        <ele>1.63589</ele>
        <time>2026-04-19T07:30:16.000Z</time>
      </trkpt>
      <trkpt lat="26.120945" lon="-80.104346">
        <ele>1.177308</ele>
        <time>2026-04-19T07:30:25.000Z</time>
      </trkpt>
      <trkpt lat="26.121441" lon="-80.104264">
        <ele>0.979943</ele>
        <time>2026-04-19T07:30:31.000Z</time>
      </trkpt>
      <trkpt lat="26.121759" lon="-80.104215">
        <ele>0.982859</ele>
        <time>2026-04-19T07:30:35.000Z</time>
      </trkpt>
      <trkpt lat="26.122556" lon="-80.104126">
        <ele>0.990453</ele>
        <time>2026-04-19T07:30:44.000Z</time>
      </trkpt>
      <trkpt lat="26.122578" lon="-80.104114">
        <ele>0.990588</ele>
        <time>2026-04-19T07:30:44.000Z</time>
      </trkpt>
      <trkpt lat="26.123421" lon="-80.103995">
        <ele>1.023961</ele>
        <time>2026-04-19T07:30:53.000Z</time>
      </trkpt>
      <trkpt lat="26.123604" lon="-80.103975">
        <ele>1.040666</ele>
        <time>2026-04-19T07:30:55.000Z</time>
      </trkpt>
      <trkpt lat="26.123835" lon="-80.103926">
        <ele>1.060684</ele>
        <time>2026-04-19T07:30:58.000Z</time>
      </trkpt>
      <trkpt lat="26.124194" lon="-80.103877">
        <ele>1.09288</ele>
        <time>2026-04-19T07:31:02.000Z</time>
      </trkpt>
      <trkpt lat="26.124407" lon="-80.103831">
        <ele>1.111762</ele>
        <time>2026-04-19T07:31:04.000Z</time>
      </trkpt>
      <trkpt lat="26.125237" lon="-80.103669">
        <ele>1.236405</ele>
        <time>2026-04-19T07:31:13.000Z</time>
      </trkpt>
      <trkpt lat="26.125887" lon="-80.103549">
        <ele>1.385394</ele>
        <time>2026-04-19T07:31:20.000Z</time>
      </trkpt>
      <trkpt lat="26.126976" lon="-80.103496">
        <ele>1.437257</ele>
        <time>2026-04-19T07:31:32.000Z</time>
      </trkpt>
      <trkpt lat="26.127266" lon="-80.103481">
        <ele>1.331322</ele>
        <time>2026-04-19T07:31:35.000Z</time>
      </trkpt>
      <trkpt lat="26.12802" lon="-80.103425">
        <ele>1.056538</ele>
        <time>2026-04-19T07:31:43.000Z</time>
      </trkpt>
      <trkpt lat="26.12864" lon="-80.103395">
        <ele>0.864144</ele>
        <time>2026-04-19T07:31:50.000Z</time>
      </trkpt>
      <trkpt lat="26.129062" lon="-80.10336">
        <ele>0.793578</ele>
        <time>2026-04-19T07:31:55.000Z</time>
      </trkpt>
      <trkpt lat="26.129832" lon="-80.103343">
        <ele>0.664061</ele>
        <time>2026-04-19T07:32:04.000Z</time>
      </trkpt>
      <trkpt lat="26.13041" lon="-80.103319">
        <ele>0.598788</ele>
        <time>2026-04-19T07:32:10.000Z</time>
      </trkpt>
      <trkpt lat="26.130706" lon="-80.103321">
        <ele>0.605101</ele>
        <time>2026-04-19T07:32:13.000Z</time>
      </trkpt>
      <trkpt lat="26.131096" lon="-80.103298">
        <ele>0.612848</ele>
        <time>2026-04-19T07:32:17.000Z</time>
      </trkpt>
      <trkpt lat="26.131188" lon="-80.103299">
        <ele>0.614755</ele>
        <time>2026-04-19T07:32:18.000Z</time>
      </trkpt>
      <trkpt lat="26.131277" lon="-80.103292">
        <ele>0.616399</ele>
        <time>2026-04-19T07:32:19.000Z</time>
      </trkpt>
      <trkpt lat="26.131967" lon="-80.103288">
        <ele>0.630283</ele>
        <time>2026-04-19T07:32:27.000Z</time>
      </trkpt>
      <trkpt lat="26.132501" lon="-80.103268">
        <ele>0.742273</ele>
        <time>2026-04-19T07:32:33.000Z</time>
      </trkpt>
      <trkpt lat="26.132872" lon="-80.103243">
        <ele>0.829024</ele>
        <time>2026-04-19T07:32:37.000Z</time>
      </trkpt>
      <trkpt lat="26.133214" lon="-80.103236">
        <ele>0.909405</ele>
        <time>2026-04-19T07:32:41.000Z</time>
      </trkpt>
      <trkpt lat="26.133303" lon="-80.103229">
        <ele>0.932635</ele>
        <time>2026-04-19T07:32:42.000Z</time>
      </trkpt>
      <trkpt lat="26.133405" lon="-80.10323">
        <ele>0.953269</ele>
        <time>2026-04-19T07:32:43.000Z</time>
      </trkpt>
      <trkpt lat="26.136166" lon="-80.103083">
        <ele>1.037505</ele>
        <time>2026-04-19T07:33:14.000Z</time>
      </trkpt>
      <trkpt lat="26.136449" lon="-80.103131">
        <ele>1.046636</ele>
        <time>2026-04-19T07:33:17.000Z</time>
      </trkpt>
      <trkpt lat="26.136791" lon="-80.103128">
        <ele>1.057617</ele>
        <time>2026-04-19T07:33:21.000Z</time>
      </trkpt>
      <trkpt lat="26.13687" lon="-80.103107">
        <ele>1.060173</ele>
        <time>2026-04-19T07:33:22.000Z</time>
      </trkpt>
      <trkpt lat="26.136969" lon="-80.103108">
        <ele>1.06327</ele>
        <time>2026-04-19T07:33:23.000Z</time>
      </trkpt>
      <trkpt lat="26.137306" lon="-80.103075">
        <ele>1.074295</ele>
        <time>2026-04-19T07:33:27.000Z</time>
      </trkpt>
      <trkpt lat="26.137386" lon="-80.103057">
        <ele>1.077059</ele>
        <time>2026-04-19T07:33:28.000Z</time>
      </trkpt>
      <trkpt lat="26.137803" lon="-80.103013">
        <ele>1.046483</ele>
        <time>2026-04-19T07:33:33.000Z</time>
      </trkpt>
      <trkpt lat="26.13799" lon="-80.103">
        <ele>1.030997</ele>
        <time>2026-04-19T07:33:35.000Z</time>
      </trkpt>
      <trkpt lat="26.138112" lon="-80.102976">
        <ele>1.020489</ele>
        <time>2026-04-19T07:33:36.000Z</time>
      </trkpt>
      <trkpt lat="26.138218" lon="-80.102923">
        <ele>1.011094</ele>
        <time>2026-04-19T07:33:37.000Z</time>
      </trkpt>
      <trkpt lat="26.13896" lon="-80.10284">
        <ele>0.948447</ele>
        <time>2026-04-19T07:33:45.000Z</time>
      </trkpt>
      <trkpt lat="26.140205" lon="-80.102698">
        <ele>0.884498</ele>
        <time>2026-04-19T07:33:59.000Z</time>
      </trkpt>
      <trkpt lat="26.140593" lon="-80.102648">
        <ele>0.867376</ele>
        <time>2026-04-19T07:34:03.000Z</time>
      </trkpt>
      <trkpt lat="26.141244" lon="-80.102551">
        <ele>0.927477</ele>
        <time>2026-04-19T07:34:10.000Z</time>
      </trkpt>
      <trkpt lat="26.14206" lon="-80.102533">
        <ele>1.166921</ele>
        <time>2026-04-19T07:34:19.000Z</time>
      </trkpt>
      <trkpt lat="26.142887" lon="-80.102432">
        <ele>1.382388</ele>
        <time>2026-04-19T07:34:28.000Z</time>
      </trkpt>
      <trkpt lat="26.143976" lon="-80.102257">
        <ele>1.416335</ele>
        <time>2026-04-19T07:34:40.000Z</time>
      </trkpt>
      <trkpt lat="26.144609" lon="-80.102167">
        <ele>1.401071</ele>
        <time>2026-04-19T07:34:47.000Z</time>
      </trkpt>
      <trkpt lat="26.144652" lon="-80.102164">
        <ele>1.383604</ele>
        <time>2026-04-19T07:34:47.000Z</time>
      </trkpt>
      <trkpt lat="26.144963" lon="-80.102065">
        <ele>1.180234</ele>
        <time>2026-04-19T07:34:51.000Z</time>
      </trkpt>
      <trkpt lat="26.144991" lon="-80.102056">
        <ele>1.159902</ele>
        <time>2026-04-19T07:34:51.000Z</time>
      </trkpt>
      <trkpt lat="26.145276" lon="-80.101978">
        <ele>0.975799</ele>
        <time>2026-04-19T07:34:54.000Z</time>
      </trkpt>
      <trkpt lat="26.145776" lon="-80.101855">
        <ele>0.652829</ele>
        <time>2026-04-19T07:35:00.000Z</time>
      </trkpt>
      <trkpt lat="26.146254" lon="-80.101781">
        <ele>0.343139</ele>
        <time>2026-04-19T07:35:05.000Z</time>
      </trkpt>
      <trkpt lat="26.146565" lon="-80.101725">
        <ele>0.330684</ele>
        <time>2026-04-19T07:35:09.000Z</time>
      </trkpt>
      <trkpt lat="26.147345" lon="-80.101598">
        <ele>0.42654</ele>
        <time>2026-04-19T07:35:18.000Z</time>
      </trkpt>
      <trkpt lat="26.147401" lon="-80.101596">
        <ele>0.432636</ele>
        <time>2026-04-19T07:35:19.000Z</time>
      </trkpt>
      <trkpt lat="26.147861" lon="-80.101522">
        <ele>0.487337</ele>
        <time>2026-04-19T07:35:24.000Z</time>
      </trkpt>
      <trkpt lat="26.148151" lon="-80.101459">
        <ele>0.526524</ele>
        <time>2026-04-19T07:35:27.000Z</time>
      </trkpt>
      <trkpt lat="26.14893" lon="-80.10134">
        <ele>0.682954</ele>
        <time>2026-04-19T07:35:36.000Z</time>
      </trkpt>
      <trkpt lat="26.14948" lon="-80.101229">
        <ele>0.791943</ele>
        <time>2026-04-19T07:35:42.000Z</time>
      </trkpt>
      <trkpt lat="26.149714" lon="-80.101163">
        <ele>0.84139</ele>
        <time>2026-04-19T07:35:45.000Z</time>
      </trkpt>
      <trkpt lat="26.149731" lon="-80.10116">
        <ele>0.845969</ele>
        <time>2026-04-19T07:35:45.000Z</time>
      </trkpt>
      <trkpt lat="26.150528" lon="-80.101092">
        <ele>1.152397</ele>
        <time>2026-04-19T07:35:54.000Z</time>
      </trkpt>
      <trkpt lat="26.150573" lon="-80.101078">
        <ele>1.17371</ele>
        <time>2026-04-19T07:35:55.000Z</time>
      </trkpt>
      <trkpt lat="26.151322" lon="-80.101008">
        <ele>1.498771</ele>
        <time>2026-04-19T07:36:03.000Z</time>
      </trkpt>
      <trkpt lat="26.151829" lon="-80.100937">
        <ele>1.835574</ele>
        <time>2026-04-19T07:36:09.000Z</time>
      </trkpt>
      <trkpt lat="26.152107" lon="-80.100951">
        <ele>2.165854</ele>
        <time>2026-04-19T07:36:12.000Z</time>
      </trkpt>
      <trkpt lat="26.153006" lon="-80.101125">
        <ele>3.211992</ele>
        <time>2026-04-19T07:36:22.000Z</time>
      </trkpt>
      <trkpt lat="26.153154" lon="-80.101137">
        <ele>3.384278</ele>
        <time>2026-04-19T07:36:24.000Z</time>
      </trkpt>
      <trkpt lat="26.153428" lon="-80.101086">
        <ele>3.70571</ele>
        <time>2026-04-19T07:36:27.000Z</time>
      </trkpt>
      <trkpt lat="26.15377" lon="-80.101092">
        <ele>3.854872</ele>
        <time>2026-04-19T07:36:31.000Z</time>
      </trkpt>
      <trkpt lat="26.154124" lon="-80.101114">
        <ele>4.00327</ele>
        <time>2026-04-19T07:36:35.000Z</time>
      </trkpt>
      <trkpt lat="26.154283" lon="-80.101134">
        <ele>4.063185</ele>
        <time>2026-04-19T07:36:37.000Z</time>
      </trkpt>
      <trkpt lat="26.155173" lon="-80.101144">
        <ele>4.430046</ele>
        <time>2026-04-19T07:36:47.000Z</time>
      </trkpt>
      <trkpt lat="26.155521" lon="-80.101142">
        <ele>4.446844</ele>
        <time>2026-04-19T07:36:51.000Z</time>
      </trkpt>
      <trkpt lat="26.156395" lon="-80.101136">
        <ele>4.403891</ele>
        <time>2026-04-19T07:37:01.000Z</time>
      </trkpt>
      <trkpt lat="26.156583" lon="-80.10115">
        <ele>4.394539</ele>
        <time>2026-04-19T07:37:03.000Z</time>
      </trkpt>
      <trkpt lat="26.157149" lon="-80.101134">
        <ele>4.342804</ele>
        <time>2026-04-19T07:37:09.000Z</time>
      </trkpt>
      <trkpt lat="26.157293" lon="-80.101142">
        <ele>4.300096</ele>
        <time>2026-04-19T07:37:11.000Z</time>
      </trkpt>
      <trkpt lat="26.157778" lon="-80.101144">
        <ele>4.153335</ele>
        <time>2026-04-19T07:37:16.000Z</time>
      </trkpt>
      <trkpt lat="26.157923" lon="-80.101139">
        <ele>4.106121</ele>
        <time>2026-04-19T07:37:18.000Z</time>
      </trkpt>
      <trkpt lat="26.159622" lon="-80.101144">
        <ele>3.718548</ele>
        <time>2026-04-19T07:37:37.000Z</time>
      </trkpt>
      <trkpt lat="26.160288" lon="-80.101129">
        <ele>3.622199</ele>
        <time>2026-04-19T07:37:44.000Z</time>
      </trkpt>
      <trkpt lat="26.160647" lon="-80.101132">
        <ele>3.57272</ele>
        <time>2026-04-19T07:37:48.000Z</time>
      </trkpt>
      <trkpt lat="26.161144" lon="-80.101122">
        <ele>3.493511</ele>
        <time>2026-04-19T07:37:54.000Z</time>
      </trkpt>
      <trkpt lat="26.161541" lon="-80.101092">
        <ele>3.43111</ele>
        <time>2026-04-19T07:37:58.000Z</time>
      </trkpt>
      <trkpt lat="26.161706" lon="-80.101058">
        <ele>3.407443</ele>
        <time>2026-04-19T07:38:00.000Z</time>
      </trkpt>
      <trkpt lat="26.162871" lon="-80.100923">
        <ele>3.226896</ele>
        <time>2026-04-19T07:38:13.000Z</time>
      </trkpt>
      <trkpt lat="26.163529" lon="-80.100864">
        <ele>3.13318</ele>
        <time>2026-04-19T07:38:20.000Z</time>
      </trkpt>
      <trkpt lat="26.163584" lon="-80.100874">
        <ele>3.125202</ele>
        <time>2026-04-19T07:38:21.000Z</time>
      </trkpt>
      <trkpt lat="26.16359" lon="-80.100988">
        <ele>3.109071</ele>
        <time>2026-04-19T07:38:22.000Z</time>
      </trkpt>
      <trkpt lat="26.163315" lon="-80.101">
        <ele>3.070787</ele>
        <time>2026-04-19T07:38:25.000Z</time>
      </trkpt>
      <trkpt lat="26.162888" lon="-80.101039">
        <ele>3.075728</ele>
        <time>2026-04-19T07:38:30.000Z</time>
      </trkpt>
      <trkpt lat="26.161876" lon="-80.101173">
        <ele>3.367991</ele>
        <time>2026-04-19T07:38:41.000Z</time>
      </trkpt>
      <trkpt lat="26.161642" lon="-80.101198">
        <ele>3.434375</ele>
        <time>2026-04-19T07:38:44.000Z</time>
      </trkpt>
      <trkpt lat="26.161025" lon="-80.101252">
        <ele>3.556223</ele>
        <time>2026-04-19T07:38:51.000Z</time>
      </trkpt>
      <trkpt lat="26.160653" lon="-80.101255">
        <ele>3.577584</ele>
        <time>2026-04-19T07:38:55.000Z</time>
      </trkpt>
      <trkpt lat="26.160018" lon="-80.101258">
        <ele>3.612217</ele>
        <time>2026-04-19T07:39:02.000Z</time>
      </trkpt>
      <trkpt lat="26.159968" lon="-80.101259">
        <ele>3.615714</ele>
        <time>2026-04-19T07:39:03.000Z</time>
      </trkpt>
      <trkpt lat="26.159624" lon="-80.101265">
        <ele>3.634249</ele>
        <time>2026-04-19T07:39:07.000Z</time>
      </trkpt>
      <trkpt lat="26.158846" lon="-80.101263">
        <ele>3.717814</ele>
        <time>2026-04-19T07:39:16.000Z</time>
      </trkpt>
      <trkpt lat="26.158478" lon="-80.101256">
        <ele>3.763799</ele>
        <time>2026-04-19T07:39:20.000Z</time>
      </trkpt>
      <trkpt lat="26.157867" lon="-80.101268">
        <ele>3.835919</ele>
        <time>2026-04-19T07:39:27.000Z</time>
      </trkpt>
      <trkpt lat="26.157763" lon="-80.101272">
        <ele>3.848259</ele>
        <time>2026-04-19T07:39:28.000Z</time>
      </trkpt>
      <trkpt lat="26.157366" lon="-80.101258">
        <ele>3.96451</ele>
        <time>2026-04-19T07:39:32.000Z</time>
      </trkpt>
      <trkpt lat="26.156975" lon="-80.101267">
        <ele>4.097474</ele>
        <time>2026-04-19T07:39:36.000Z</time>
      </trkpt>
      <trkpt lat="26.156761" lon="-80.101263">
        <ele>4.16843</ele>
        <time>2026-04-19T07:39:38.000Z</time>
      </trkpt>
      <trkpt lat="26.156696" lon="-80.101268">
        <ele>4.193786</ele>
        <time>2026-04-19T07:39:39.000Z</time>
      </trkpt>
      <trkpt lat="26.156491" lon="-80.101271">
        <ele>4.263366</ele>
        <time>2026-04-19T07:39:41.000Z</time>
      </trkpt>
      <trkpt lat="26.156344" lon="-80.10126">
        <ele>4.316836</ele>
        <time>2026-04-19T07:39:43.000Z</time>
      </trkpt>
      <trkpt lat="26.155948" lon="-80.101263">
        <ele>4.452217</ele>
        <time>2026-04-19T07:39:47.000Z</time>
      </trkpt>
      <trkpt lat="26.155516" lon="-80.101277">
        <ele>4.411072</ele>
        <time>2026-04-19T07:39:52.000Z</time>
      </trkpt>
      <trkpt lat="26.1548" lon="-80.101274">
        <ele>4.27106</ele>
        <time>2026-04-19T07:40:00.000Z</time>
      </trkpt>
      <trkpt lat="26.15459" lon="-80.101274">
        <ele>4.231499</ele>
        <time>2026-04-19T07:40:02.000Z</time>
      </trkpt>
      <trkpt lat="26.154256" lon="-80.101257">
        <ele>4.166676</ele>
        <time>2026-04-19T07:40:06.000Z</time>
      </trkpt>
      <trkpt lat="26.154128" lon="-80.101237">
        <ele>4.138544</ele>
        <time>2026-04-19T07:40:07.000Z</time>
      </trkpt>
      <trkpt lat="26.153668" lon="-80.101186">
        <ele>3.741463</ele>
        <time>2026-04-19T07:40:12.000Z</time>
      </trkpt>
      <trkpt lat="26.153149" lon="-80.101127">
        <ele>3.24516</ele>
        <time>2026-04-19T07:40:18.000Z</time>
      </trkpt>
      <trkpt lat="26.153003" lon="-80.10111">
        <ele>3.101055</ele>
        <time>2026-04-19T07:40:20.000Z</time>
      </trkpt>
      <trkpt lat="26.152111" lon="-80.100954">
        <ele>2.25178</ele>
        <time>2026-04-19T07:40:30.000Z</time>
      </trkpt>
      <trkpt lat="26.151828" lon="-80.100946">
        <ele>2.017669</ele>
        <time>2026-04-19T07:40:33.000Z</time>
      </trkpt>
      <trkpt lat="26.151322" lon="-80.101011">
        <ele>1.599229</ele>
        <time>2026-04-19T07:40:39.000Z</time>
      </trkpt>
      <trkpt lat="26.150575" lon="-80.101095">
        <ele>0.984713</ele>
        <time>2026-04-19T07:40:47.000Z</time>
      </trkpt>
      <trkpt lat="26.150525" lon="-80.101083">
        <ele>0.944411</ele>
        <time>2026-04-19T07:40:48.000Z</time>
      </trkpt>
      <trkpt lat="26.149736" lon="-80.101169">
        <ele>0.853924</ele>
        <time>2026-04-19T07:40:57.000Z</time>
      </trkpt>
      <trkpt lat="26.149711" lon="-80.101165">
        <ele>0.851797</ele>
        <time>2026-04-19T07:40:57.000Z</time>
      </trkpt>
      <trkpt lat="26.14948" lon="-80.101219">
        <ele>0.82882</ele>
        <time>2026-04-19T07:41:00.000Z</time>
      </trkpt>
      <trkpt lat="26.148923" lon="-80.101336">
        <ele>0.778152</ele>
        <time>2026-04-19T07:41:06.000Z</time>
      </trkpt>
      <trkpt lat="26.148141" lon="-80.101458">
        <ele>0.562482</ele>
        <time>2026-04-19T07:41:15.000Z</time>
      </trkpt>
      <trkpt lat="26.14785" lon="-80.101515">
        <ele>0.461675</ele>
        <time>2026-04-19T07:41:18.000Z</time>
      </trkpt>
      <trkpt lat="26.14741" lon="-80.101594">
        <ele>0.307155</ele>
        <time>2026-04-19T07:41:23.000Z</time>
      </trkpt>
      <trkpt lat="26.14736" lon="-80.101588">
        <ele>0.289974</ele>
        <time>2026-04-19T07:41:24.000Z</time>
      </trkpt>
      <trkpt lat="26.146559" lon="-80.10173">
        <ele>0.357578</ele>
        <time>2026-04-19T07:41:33.000Z</time>
      </trkpt>
      <trkpt lat="26.146256" lon="-80.101779">
        <ele>0.536649</ele>
        <time>2026-04-19T07:41:36.000Z</time>
      </trkpt>
      <trkpt lat="26.14576" lon="-80.101849">
        <ele>0.815823</ele>
        <time>2026-04-19T07:41:42.000Z</time>
      </trkpt>
      <trkpt lat="26.145262" lon="-80.101962">
        <ele>1.106987</ele>
        <time>2026-04-19T07:41:48.000Z</time>
      </trkpt>
      <trkpt lat="26.144984" lon="-80.102058">
        <ele>1.241192</ele>
        <time>2026-04-19T07:41:51.000Z</time>
      </trkpt>
      <trkpt lat="26.144955" lon="-80.102076">
        <ele>1.253995</ele>
        <time>2026-04-19T07:41:51.000Z</time>
      </trkpt>
      <trkpt lat="26.144636" lon="-80.102163">
        <ele>1.381938</ele>
        <time>2026-04-19T07:41:55.000Z</time>
      </trkpt>
      <trkpt lat="26.144618" lon="-80.10218">
        <ele>1.392934</ele>
        <time>2026-04-19T07:41:55.000Z</time>
      </trkpt>
      <trkpt lat="26.144411" lon="-80.102257">
        <ele>1.483023</ele>
        <time>2026-04-19T07:41:57.000Z</time>
      </trkpt>
      <trkpt lat="26.144216" lon="-80.10231">
        <ele>1.561195</ele>
        <time>2026-04-19T07:41:59.000Z</time>
      </trkpt>
      <trkpt lat="26.142891" lon="-80.102495">
        <ele>1.724278</ele>
        <time>2026-04-19T07:42:14.000Z</time>
      </trkpt>
      <trkpt lat="26.140602" lon="-80.102733">
        <ele>1.209196</ele>
        <time>2026-04-19T07:42:40.000Z</time>
      </trkpt>
      <trkpt lat="26.139863" lon="-80.102811">
        <ele>1.109936</ele>
        <time>2026-04-19T07:42:48.000Z</time>
      </trkpt>
      <trkpt lat="26.138945" lon="-80.10292">
        <ele>1.247119</ele>
        <time>2026-04-19T07:42:58.000Z</time>
      </trkpt>
      <trkpt lat="26.138204" lon="-80.103027">
        <ele>1.366852</ele>
        <time>2026-04-19T07:43:06.000Z</time>
      </trkpt>
      <trkpt lat="26.138109" lon="-80.10298">
        <ele>1.383754</ele>
        <time>2026-04-19T07:43:07.000Z</time>
      </trkpt>
      <trkpt lat="26.137986" lon="-80.102991">
        <ele>1.391114</ele>
        <time>2026-04-19T07:43:08.000Z</time>
      </trkpt>
      <trkpt lat="26.137806" lon="-80.103013">
        <ele>1.384385</ele>
        <time>2026-04-19T07:43:10.000Z</time>
      </trkpt>
      <trkpt lat="26.137391" lon="-80.103069">
        <ele>1.369375</ele>
        <time>2026-04-19T07:43:15.000Z</time>
      </trkpt>
      <trkpt lat="26.137311" lon="-80.103074">
        <ele>1.366243</ele>
        <time>2026-04-19T07:43:16.000Z</time>
      </trkpt>
      <trkpt lat="26.136958" lon="-80.103102">
        <ele>1.353714</ele>
        <time>2026-04-19T07:43:20.000Z</time>
      </trkpt>
      <trkpt lat="26.136877" lon="-80.103115">
        <ele>1.350212</ele>
        <time>2026-04-19T07:43:21.000Z</time>
      </trkpt>
      <trkpt lat="26.136786" lon="-80.103122">
        <ele>1.347297</ele>
        <time>2026-04-19T07:43:22.000Z</time>
      </trkpt>
      <trkpt lat="26.136444" lon="-80.103128">
        <ele>1.334836</ele>
        <time>2026-04-19T07:43:26.000Z</time>
      </trkpt>
      <trkpt lat="26.136177" lon="-80.103202">
        <ele>1.340956</ele>
        <time>2026-04-19T07:43:29.000Z</time>
      </trkpt>
      <trkpt lat="26.133396" lon="-80.103334">
        <ele>1.4805</ele>
        <time>2026-04-19T07:44:00.000Z</time>
      </trkpt>
      <trkpt lat="26.133365" lon="-80.103347">
        <ele>1.476194</ele>
        <time>2026-04-19T07:44:00.000Z</time>
      </trkpt>
      <trkpt lat="26.133263" lon="-80.103344">
        <ele>1.467135</ele>
        <time>2026-04-19T07:44:01.000Z</time>
      </trkpt>
      <trkpt lat="26.133208" lon="-80.103346">
        <ele>1.462347</ele>
        <time>2026-04-19T07:44:02.000Z</time>
      </trkpt>
      <trkpt lat="26.132613" lon="-80.103367">
        <ele>1.399477</ele>
        <time>2026-04-19T07:44:09.000Z</time>
      </trkpt>
      <trkpt lat="26.132518" lon="-80.103375">
        <ele>1.385545</ele>
        <time>2026-04-19T07:44:10.000Z</time>
      </trkpt>
      <trkpt lat="26.132318" lon="-80.103375">
        <ele>1.357821</ele>
        <time>2026-04-19T07:44:12.000Z</time>
      </trkpt>
      <trkpt lat="26.131967" lon="-80.103372">
        <ele>1.305576</ele>
        <time>2026-04-19T07:44:16.000Z</time>
      </trkpt>
      <trkpt lat="26.131902" lon="-80.103373">
        <ele>1.296481</ele>
        <time>2026-04-19T07:44:17.000Z</time>
      </trkpt>
      <trkpt lat="26.131278" lon="-80.103406">
        <ele>1.204641</ele>
        <time>2026-04-19T07:44:24.000Z</time>
      </trkpt>
      <trkpt lat="26.131218" lon="-80.1034">
        <ele>1.197163</ele>
        <time>2026-04-19T07:44:25.000Z</time>
      </trkpt>
      <trkpt lat="26.131146" lon="-80.103396">
        <ele>1.185854</ele>
        <time>2026-04-19T07:44:26.000Z</time>
      </trkpt>
      <trkpt lat="26.131109" lon="-80.10341">
        <ele>1.178667</ele>
        <time>2026-04-19T07:44:26.000Z</time>
      </trkpt>
      <trkpt lat="26.130491" lon="-80.103422">
        <ele>1.181405</ele>
        <time>2026-04-19T07:44:33.000Z</time>
      </trkpt>
      <trkpt lat="26.130394" lon="-80.103427">
        <ele>1.188657</ele>
        <time>2026-04-19T07:44:34.000Z</time>
      </trkpt>
      <trkpt lat="26.12983" lon="-80.103441">
        <ele>1.240507</ele>
        <time>2026-04-19T07:44:40.000Z</time>
      </trkpt>
      <trkpt lat="26.129785" lon="-80.103437">
        <ele>1.245659</ele>
        <time>2026-04-19T07:44:41.000Z</time>
      </trkpt>
      <trkpt lat="26.129112" lon="-80.103477">
        <ele>1.307015</ele>
        <time>2026-04-19T07:44:48.000Z</time>
      </trkpt>
      <trkpt lat="26.129022" lon="-80.103468">
        <ele>1.332166</ele>
        <time>2026-04-19T07:44:49.000Z</time>
      </trkpt>
      <trkpt lat="26.128017" lon="-80.103522">
        <ele>1.766013</ele>
        <time>2026-04-19T07:45:00.000Z</time>
      </trkpt>
      <trkpt lat="26.127514" lon="-80.103557">
        <ele>1.987735</ele>
        <time>2026-04-19T07:45:06.000Z</time>
      </trkpt>
      <trkpt lat="26.127264" lon="-80.103584">
        <ele>2.086981</ele>
        <time>2026-04-19T07:45:09.000Z</time>
      </trkpt>
      <trkpt lat="26.126581" lon="-80.103624">
        <ele>2.084634</ele>
        <time>2026-04-19T07:45:17.000Z</time>
      </trkpt>
      <trkpt lat="26.125951" lon="-80.103634">
        <ele>2.082514</ele>
        <time>2026-04-19T07:45:24.000Z</time>
      </trkpt>
      <trkpt lat="26.125954" lon="-80.10364">
        <ele>2.082505</ele>
        <time>2026-04-19T07:45:24.000Z</time>
      </trkpt>
      <trkpt lat="26.12596" lon="-80.103626">
        <ele>2.082505</ele>
        <time>2026-04-19T07:45:24.000Z</time>
      </trkpt>
      <trkpt lat="26.12545" lon="-80.103674">
        <ele>2.060792</ele>
        <time>2026-04-19T07:45:30.000Z</time>
      </trkpt>
      <trkpt lat="26.124923" lon="-80.103731">
        <ele>1.804914</ele>
        <time>2026-04-19T07:45:36.000Z</time>
      </trkpt>
      <trkpt lat="26.124924" lon="-80.103728">
        <ele>1.804907</ele>
        <time>2026-04-19T07:45:36.000Z</time>
      </trkpt>
      <trkpt lat="26.12492" lon="-80.10373">
        <ele>1.80491</ele>
        <time>2026-04-19T07:45:36.000Z</time>
      </trkpt>
      <trkpt lat="26.124927" lon="-80.103736">
        <ele>1.803574</ele>
        <time>2026-04-19T07:45:36.000Z</time>
      </trkpt>
      <trkpt lat="26.124375" lon="-80.103842">
        <ele>1.527291</ele>
        <time>2026-04-19T07:45:42.000Z</time>
      </trkpt>
      <trkpt lat="26.123825" lon="-80.103922">
        <ele>1.251511</ele>
        <time>2026-04-19T07:45:48.000Z</time>
      </trkpt>
      <trkpt lat="26.123825" lon="-80.103926">
        <ele>1.251521</ele>
        <time>2026-04-19T07:45:48.000Z</time>
      </trkpt>
      <trkpt lat="26.123835" lon="-80.103935">
        <ele>1.248401</ele>
        <time>2026-04-19T07:45:48.000Z</time>
      </trkpt>
      <trkpt lat="26.123208" lon="-80.104021">
        <ele>1.138461</ele>
        <time>2026-04-19T07:45:55.000Z</time>
      </trkpt>
      <trkpt lat="26.122568" lon="-80.104115">
        <ele>1.070743</ele>
        <time>2026-04-19T07:46:02.000Z</time>
      </trkpt>
      <trkpt lat="26.122575" lon="-80.104132">
        <ele>1.070742</ele>
        <time>2026-04-19T07:46:02.000Z</time>
      </trkpt>
      <trkpt lat="26.122592" lon="-80.104124">
        <ele>1.068316</ele>
        <time>2026-04-19T07:46:02.000Z</time>
      </trkpt>
      <trkpt lat="26.122027" lon="-80.104184">
        <ele>1.00742</ele>
        <time>2026-04-19T07:46:08.000Z</time>
      </trkpt>
      <trkpt lat="26.121454" lon="-80.104255">
        <ele>1.133401</ele>
        <time>2026-04-19T07:46:14.000Z</time>
      </trkpt>
      <trkpt lat="26.121453" lon="-80.104268">
        <ele>1.133417</ele>
        <time>2026-04-19T07:46:14.000Z</time>
      </trkpt>
      <trkpt lat="26.121448" lon="-80.104271">
        <ele>1.134662</ele>
        <time>2026-04-19T07:46:14.000Z</time>
      </trkpt>
      <trkpt lat="26.120945" lon="-80.104331">
        <ele>1.257915</ele>
        <time>2026-04-19T07:46:20.000Z</time>
      </trkpt>
      <trkpt lat="26.120448" lon="-80.104413">
        <ele>1.381198</ele>
        <time>2026-04-19T07:46:26.000Z</time>
      </trkpt>
      <trkpt lat="26.120105" lon="-80.104474">
        <ele>1.45801100591</ele>
        <time>2026-04-19T07:46:30.000Z</time>
      </trkpt>
      <trkpt lat="26.120018" lon="-80.104487">
        <ele>1.47742283687</ele>
        <time>2026-04-19T07:46:31.000Z</time>
      </trkpt>
      <trkpt lat="26.12001" lon="-80.104489">
        <ele>1.47923600374</ele>
        <time>2026-04-19T07:46:31.000Z</time>
      </trkpt>
      <trkpt lat="26.120013" lon="-80.104486">
        <ele>1.48012761341</ele>
        <time>2026-04-19T07:46:31.000Z</time>
      </trkpt>
      <trkpt lat="26.119285" lon="-80.104564">
        <ele>1.64186300494</ele>
        <time>2026-04-19T07:46:39.000Z</time>
      </trkpt>
      <trkpt lat="26.119291" lon="-80.104684">
        <ele>1.6657270965</ele>
        <time>2026-04-19T07:46:40.000Z</time>
      </trkpt>
      <trkpt lat="26.119285" lon="-80.10499">
        <ele>1.72650088136</ele>
        <time>2026-04-19T07:46:43.000Z</time>
      </trkpt>
      <trkpt lat="26.119286" lon="-80.105304">
        <ele>1.78884905192</ele>
        <time>2026-04-19T07:46:46.000Z</time>
      </trkpt>
      <trkpt lat="26.119281" lon="-80.105313">
        <ele>1.79095050667</ele>
        <time>2026-04-19T07:46:46.000Z</time>
      </trkpt>
    </trkseg>
  </trk>
</gpx>

<!--
Performance optimized by W3 Total Cache. Learn more: https://www.boldgrid.com/w3-total-cache/?utm_source=w3tc&utm_medium=footer_comment&utm_campaign=free_plugin

Page Caching using Disk: Enhanced{w3tc_pagecache_reject_reason} 

Served from: www.aquabike.world @ 2026-05-10 15:23:19 by W3 Total Cache
-->